createdAt,value
2022-11-28T00:00:17.676Z,6.07
2022-11-28T00:03:07.260Z,5.43
2022-11-28T00:05:56.872Z,6.00
2022-11-28T00:08:44.409Z,6.73
2022-11-28T00:11:31.895Z,7.30
2022-11-28T00:14:19.789Z,6.27
2022-11-28T00:17:07.394Z,6.43
2022-11-28T00:19:56.892Z,6.83
2022-11-28T00:22:44.331Z,6.50
2022-11-28T00:25:33.807Z,6.63
2022-11-28T00:28:23.279Z,6.97
2022-11-28T00:31:14.467Z,7.10
2022-11-28T00:34:02.181Z,5.97
2022-11-28T00:36:49.698Z,6.23
2022-11-28T00:39:37.094Z,6.53
2022-11-28T00:42:26.575Z,5.93
2022-11-28T00:45:16.088Z,6.13
2022-11-28T00:48:03.100Z,6.07
2022-11-28T00:50:50.555Z,6.47
2022-11-28T00:53:42.496Z,6.17
2022-11-28T00:56:38.254Z,6.07
2022-11-28T00:59:25.632Z,6.23
2022-11-28T01:02:13.022Z,6.80
2022-11-28T01:05:00.934Z,6.43
2022-11-28T01:07:48.150Z,6.63
2022-11-28T01:10:38.528Z,6.60
2022-11-28T01:13:25.483Z,6.00
2022-11-28T01:16:15.457Z,5.80
2022-11-28T01:19:02.554Z,6.27
2022-11-28T01:21:49.865Z,6.00
2022-11-28T01:24:36.821Z,5.87
2022-11-28T01:27:23.812Z,6.13
2022-11-28T01:30:10.832Z,6.70
2022-11-28T01:33:00.303Z,5.57
2022-11-28T01:35:58.573Z,6.17
2022-11-28T01:38:46.050Z,6.40
2022-11-28T01:41:33.033Z,6.37
2022-11-28T01:44:19.938Z,5.60
2022-11-28T01:47:07.375Z,6.63
2022-11-28T01:49:56.010Z,6.70
2022-11-28T01:52:45.244Z,6.37
2022-11-28T01:55:38.027Z,5.97
2022-11-28T01:58:25.882Z,6.40
2022-11-28T02:01:13.649Z,5.67
2022-11-28T02:04:01.784Z,5.80
2022-11-28T02:06:48.709Z,5.90
2022-11-28T02:09:35.640Z,6.10
2022-11-28T02:12:38.129Z,5.83
2022-11-28T02:15:51.274Z,5.97
2022-11-28T02:19:12.278Z,6.10
2022-11-28T02:22:08.332Z,6.20
2022-11-28T02:25:12.408Z,6.20
2022-11-28T02:28:21.134Z,6.80
2022-11-28T02:31:43.564Z,6.10
2022-11-28T02:34:33.307Z,6.77
2022-11-28T02:37:39.991Z,6.63
2022-11-28T02:40:29.322Z,6.77
2022-11-28T02:43:43.783Z,6.30
2022-11-28T02:46:41.360Z,6.53
2022-11-28T02:49:41.471Z,6.77
2022-11-28T02:52:30.674Z,7.03
2022-11-28T02:55:18.195Z,7.40
2022-11-28T02:58:05.571Z,6.80
2022-11-28T03:00:53.228Z,7.00
2022-11-28T03:03:49.262Z,6.77
2022-11-28T03:06:42.004Z,6.80
2022-11-28T03:09:46.879Z,7.57
2022-11-28T03:12:41.695Z,6.80
2022-11-28T03:15:33.230Z,6.87
2022-11-28T03:18:25.442Z,7.37
2022-11-28T03:21:16.267Z,6.90
2022-11-28T03:24:06.722Z,6.80
2022-11-28T03:27:13.074Z,6.63
2022-11-28T03:30:04.331Z,7.27
2022-11-28T03:32:54.116Z,7.20
2022-11-28T03:35:45.913Z,7.17
2022-11-28T03:38:39.043Z,7.07
2022-11-28T03:41:30.434Z,8.00
2022-11-28T03:44:22.135Z,6.57
2022-11-28T03:47:09.902Z,7.37
2022-11-28T03:50:00.849Z,7.30
2022-11-28T03:52:54.127Z,6.73
2022-11-28T03:55:44.957Z,7.87
2022-11-28T03:58:37.890Z,7.47
2022-11-28T04:01:45.313Z,7.53
2022-11-28T04:04:52.907Z,7.83
2022-11-28T04:07:59.358Z,7.00
2022-11-28T04:10:58.832Z,7.33
2022-11-28T04:13:46.162Z,7.30
2022-11-28T04:16:53.452Z,7.07
2022-11-28T04:19:45.979Z,7.67
2022-11-28T04:22:38.661Z,7.93
2022-11-28T04:25:26.729Z,7.53
2022-11-28T04:28:16.866Z,6.90
2022-11-28T04:31:06.368Z,6.80
2022-11-28T04:33:56.964Z,6.87
2022-11-28T04:36:45.508Z,7.50
2022-11-28T04:39:34.030Z,8.43
2022-11-28T04:42:27.042Z,8.60
2022-11-28T04:45:14.969Z,8.50
2022-11-28T04:48:02.863Z,6.97
2022-11-28T04:51:09.031Z,7.20
2022-11-28T04:54:02.706Z,7.47
2022-11-28T04:57:08.272Z,7.43
2022-11-28T04:59:56.644Z,7.90
2022-11-28T05:02:44.976Z,7.60
2022-11-28T05:05:32.531Z,6.97
2022-11-28T05:08:20.202Z,8.85
2022-11-28T05:11:07.559Z,7.53
2022-11-28T05:13:55.675Z,8.13
2022-11-28T05:16:43.136Z,7.97
2022-11-28T05:19:31.461Z,7.57
2022-11-28T05:22:21.539Z,8.03
2022-11-28T05:25:08.881Z,7.60
2022-11-28T05:27:56.030Z,9.20
2022-11-28T05:30:44.559Z,8.90
2022-11-28T05:33:32.733Z,8.67
2022-11-28T05:36:21.967Z,8.93
2022-11-28T05:39:09.386Z,7.93
2022-11-28T05:41:56.737Z,8.63
2022-11-28T05:44:45.287Z,8.17
2022-11-28T05:47:33.289Z,8.53
2022-11-28T05:50:20.267Z,8.40
2022-11-28T05:53:10.342Z,8.43
2022-11-28T05:56:00.011Z,9.13
2022-11-28T05:58:47.416Z,8.90
2022-11-28T06:01:34.367Z,9.27
2022-11-28T06:04:21.845Z,9.30
2022-11-28T06:07:08.890Z,9.50
2022-11-28T06:09:58.230Z,9.67
2022-11-28T06:12:45.189Z,9.10
2022-11-28T06:15:37.945Z,9.43
2022-11-28T06:18:25.568Z,9.17
2022-11-28T06:21:13.555Z,9.70
2022-11-28T06:24:00.622Z,10.37
2022-11-28T06:26:48.005Z,9.07
2022-11-28T06:29:35.424Z,8.93
2022-11-28T06:32:22.894Z,9.20
2022-11-28T06:35:10.497Z,9.53
2022-11-28T06:37:57.403Z,10.40
2022-11-28T06:40:44.515Z,9.87
2022-11-28T06:43:32.047Z,10.27
2022-11-28T06:46:20.526Z,10.33
2022-11-28T06:49:07.571Z,10.23
2022-11-28T06:51:55.003Z,9.30
2022-11-28T06:54:42.664Z,10.10
2022-11-28T06:57:30.144Z,10.23
2022-11-28T07:00:17.435Z,9.27
2022-11-28T07:03:04.905Z,9.80
2022-11-28T07:05:52.283Z,11.10
2022-11-28T07:08:40.071Z,9.60
2022-11-28T07:11:29.074Z,10.73
2022-11-28T07:14:16.495Z,10.60
2022-11-28T07:17:03.975Z,10.50
2022-11-28T07:19:54.992Z,10.17
2022-11-28T07:22:43.612Z,10.30
2022-11-28T07:25:31.032Z,10.33
2022-11-28T07:28:21.996Z,10.70
2022-11-28T07:31:12.393Z,10.17
2022-11-28T07:34:02.049Z,10.67
2022-11-28T07:36:49.439Z,9.80
2022-11-28T07:39:36.862Z,10.43
2022-11-28T07:42:24.184Z,10.30
2022-11-28T07:45:11.821Z,11.03
2022-11-28T07:47:59.223Z,11.00
2022-11-28T07:50:46.664Z,10.70
2022-11-28T07:53:34.410Z,10.67
2022-11-28T07:56:24.783Z,10.27
2022-11-28T07:59:12.040Z,10.53
2022-11-28T08:01:59.116Z,10.13
2022-11-28T08:07:55.129Z,9.43
2022-11-28T08:10:42.550Z,9.43
2022-11-28T08:13:30.388Z,10.07
2022-11-28T08:16:22.136Z,9.73
2022-11-28T08:19:09.105Z,9.67
2022-11-28T08:21:56.071Z,9.03
2022-11-28T08:24:43.143Z,9.47
2022-11-28T08:27:30.781Z,9.03
2022-11-28T08:30:18.215Z,9.30
2022-11-28T08:33:05.231Z,9.57
2022-11-28T08:35:52.971Z,9.67
2022-11-28T08:38:44.860Z,9.03
2022-11-28T08:41:41.121Z,9.50
2022-11-28T08:44:30.361Z,8.50
2022-11-28T08:47:18.090Z,8.40
2022-11-28T08:50:05.827Z,9.07
2022-11-28T08:52:53.784Z,8.33
2022-11-28T08:55:44.698Z,8.73
2022-11-28T08:58:32.115Z,8.57
2022-11-28T09:01:21.535Z,8.13
2022-11-28T09:04:10.260Z,8.73
2022-11-28T09:06:57.998Z,9.27
2022-11-28T09:09:45.651Z,8.33
2022-11-28T09:12:33.647Z,8.83
2022-11-28T09:15:21.579Z,8.87
2022-11-28T09:18:10.240Z,8.57
2022-11-28T09:21:01.000Z,8.20
2022-11-28T09:23:48.980Z,9.47
2022-11-28T09:26:36.400Z,9.03
2022-11-28T09:29:23.999Z,8.70
2022-11-28T09:32:11.457Z,9.27
2022-11-28T09:34:58.808Z,8.73
2022-11-28T09:37:47.292Z,8.83
2022-11-28T09:40:35.134Z,8.93
2022-11-28T09:43:33.532Z,9.27
2022-11-28T09:46:25.302Z,8.50
2022-11-28T09:49:22.505Z,8.67
2022-11-28T09:52:21.996Z,8.90
2022-11-28T09:55:19.698Z,8.07
2022-11-28T09:58:33.425Z,8.40
2022-11-28T10:01:23.786Z,7.80
2022-11-28T10:04:14.737Z,8.57
2022-11-28T10:07:05.504Z,8.67
2022-11-28T10:10:10.527Z,8.77
2022-11-28T10:13:17.669Z,9.43
2022-11-28T10:16:16.992Z,8.97
2022-11-28T10:19:20.600Z,8.80
2022-11-28T10:22:23.974Z,8.10
2022-11-28T10:25:28.776Z,8.17
2022-11-28T10:28:28.821Z,8.33
2022-11-28T10:31:40.835Z,7.43
2022-11-28T10:35:07.424Z,8.67
2022-11-28T10:37:54.777Z,8.20
2022-11-28T10:41:02.969Z,8.13
2022-11-28T10:44:03.089Z,8.50
2022-11-28T10:47:16.813Z,8.33
2022-11-28T10:50:12.006Z,7.87
2022-11-28T10:53:40.554Z,8.37
2022-11-28T10:57:15.771Z,8.50
2022-11-28T11:00:14.903Z,8.33
2022-11-28T11:03:03.864Z,7.87
2022-11-28T11:05:51.946Z,7.67
2022-11-28T11:08:40.635Z,7.70
2022-11-28T11:11:36.830Z,8.00
2022-11-28T11:14:34.447Z,7.63
2022-11-28T11:17:35.874Z,8.70
2022-11-28T11:20:24.100Z,8.13
2022-11-28T11:23:22.203Z,8.03
2022-11-28T11:26:27.715Z,7.63
2022-11-28T11:29:41.450Z,7.90
2022-11-28T11:32:30.571Z,7.80
2022-11-28T11:35:20.433Z,7.87
2022-11-28T11:38:17.112Z,7.70
2022-11-28T11:41:26.247Z,8.00
2022-11-28T11:44:20.377Z,7.77
2022-11-28T11:47:10.566Z,7.80
2022-11-28T11:50:03.796Z,9.48
2022-11-28T11:53:10.179Z,8.53
2022-11-28T11:56:00.791Z,8.33
2022-11-28T11:58:52.222Z,7.60
2022-11-28T12:01:40.358Z,8.57
2022-11-28T12:04:45.791Z,8.13
2022-11-28T12:07:38.191Z,8.47
2022-11-28T12:10:30.122Z,7.27
2022-11-28T12:13:23.325Z,8.13
2022-11-28T12:16:13.584Z,8.10
2022-11-28T12:19:10.346Z,7.43
2022-11-28T12:21:57.778Z,8.50
2022-11-28T12:25:11.433Z,9.00
2022-11-28T12:28:04.912Z,7.87
2022-11-28T12:31:11.393Z,9.20
2022-11-28T12:33:58.911Z,7.27
2022-11-28T12:37:11.098Z,7.93
2022-11-28T12:40:27.470Z,8.50
2022-11-28T12:43:21.342Z,8.07
2022-11-28T12:46:08.750Z,8.33
2022-11-28T12:49:16.670Z,7.77
2022-11-28T12:52:16.629Z,8.23
2022-11-28T12:55:08.756Z,8.50
2022-11-28T12:58:07.204Z,7.87
2022-11-28T13:01:00.744Z,8.27
2022-11-28T13:04:00.336Z,8.60
2022-11-28T13:06:59.338Z,7.83
2022-11-28T13:10:02.645Z,7.90
2022-11-28T13:12:59.948Z,7.93
2022-11-28T13:16:28.711Z,7.53
2022-11-28T13:19:25.148Z,8.20
2022-11-28T13:22:25.510Z,8.87
2022-11-28T13:25:20.566Z,7.83
2022-11-28T13:28:29.109Z,8.73
2022-11-28T13:31:35.197Z,8.70
2022-11-28T13:34:22.482Z,7.50
2022-11-28T13:41:22.897Z,8.43
2022-11-28T13:44:31.524Z,8.37
2022-11-28T13:47:21.416Z,8.27
2022-11-28T13:50:24.639Z,9.10
2022-11-28T13:53:22.954Z,8.83
2022-11-28T13:56:42.208Z,8.73
2022-11-28T13:59:30.668Z,9.83
2022-11-28T14:02:33.177Z,9.67
2022-11-28T14:05:32.977Z,9.43
2022-11-28T14:08:32.929Z,9.47
2022-11-28T14:11:41.430Z,8.80
2022-11-28T14:14:47.264Z,9.30
2022-11-28T14:17:46.216Z,9.80
2022-11-28T14:20:57.757Z,9.50
2022-11-28T14:23:56.093Z,8.80
2022-11-28T14:26:44.464Z,9.27
2022-11-28T14:29:39.396Z,10.20
2022-11-28T14:32:43.188Z,11.23
2022-11-28T14:35:49.661Z,9.67
2022-11-28T14:38:36.583Z,10.17
2022-11-28T14:41:24.011Z,11.57
2022-11-28T14:44:45.608Z,11.50
2022-11-28T14:47:42.409Z,13.02
2022-11-28T14:50:29.314Z,11.40
2022-11-28T14:53:37.042Z,11.77
2022-11-28T14:56:26.411Z,11.40
2022-11-28T14:59:13.977Z,12.10
2022-11-28T15:02:04.416Z,11.07
2022-11-28T15:04:52.801Z,11.47
2022-11-28T15:08:03.679Z,11.00
2022-11-28T15:11:08.683Z,11.80
2022-11-28T15:14:17.286Z,11.23
2022-11-28T15:17:06.656Z,10.33
2022-11-28T15:19:54.730Z,10.17
2022-11-28T15:22:43.380Z,11.53
2022-11-28T15:25:39.791Z,11.77
2022-11-28T15:28:28.831Z,12.00
2022-11-28T15:31:21.965Z,11.60
2022-11-28T15:34:10.059Z,12.00
2022-11-28T15:37:14.991Z,13.13
2022-11-28T15:40:06.152Z,11.67
2022-11-28T15:42:53.421Z,12.50
2022-11-28T15:45:42.236Z,11.50
2022-11-28T15:48:39.289Z,12.20
2022-11-28T15:51:30.667Z,12.77
2022-11-28T15:54:32.613Z,13.10
2022-11-28T15:57:25.882Z,13.40
2022-11-28T16:00:16.815Z,13.37
2022-11-28T16:03:05.416Z,12.20
2022-11-28T16:05:53.789Z,12.30
2022-11-28T16:08:46.707Z,11.93
2022-11-28T16:11:35.536Z,12.23
2022-11-28T16:14:30.705Z,13.67
2022-11-28T16:17:23.720Z,12.73
2022-11-28T16:20:27.781Z,12.53
2022-11-28T16:23:26.449Z,13.13
2022-11-28T16:26:22.947Z,12.43
2022-11-28T16:29:10.702Z,14.00
2022-11-28T16:32:08.039Z,12.77
2022-11-28T16:34:57.131Z,13.20
2022-11-28T16:37:44.545Z,13.90
2022-11-28T16:40:32.265Z,13.30
2022-11-28T16:43:25.323Z,13.40
2022-11-28T16:46:19.700Z,13.73
2022-11-28T16:49:09.068Z,13.77
2022-11-28T16:52:16.346Z,13.40
2022-11-28T16:55:23.685Z,13.33
2022-11-28T16:58:15.600Z,14.00
2022-11-28T17:01:03.720Z,13.77
2022-11-28T17:03:52.734Z,14.47
2022-11-28T17:06:39.702Z,13.50
2022-11-28T17:09:26.616Z,13.90
2022-11-28T17:12:28.926Z,13.80
2022-11-28T17:15:20.729Z,14.63
2022-11-28T17:18:10.259Z,14.47
2022-11-28T17:21:00.126Z,13.80
2022-11-28T17:23:47.589Z,14.67
2022-11-28T17:26:35.742Z,15.00
2022-11-28T17:29:25.393Z,13.93
2022-11-28T17:32:13.721Z,14.60
2022-11-28T17:35:03.983Z,13.57
2022-11-28T17:37:51.534Z,14.27
2022-11-28T17:40:42.116Z,14.10
2022-11-28T17:43:33.507Z,13.73
2022-11-28T17:46:27.243Z,12.97
2022-11-28T17:49:14.608Z,13.63
2022-11-28T17:52:03.870Z,13.53
2022-11-28T17:54:53.150Z,15.07
2022-11-28T17:57:40.804Z,14.27
2022-11-28T18:00:29.203Z,13.63
2022-11-28T18:03:17.034Z,14.63
2022-11-28T18:06:05.255Z,14.20
2022-11-28T18:08:52.319Z,14.23
2022-11-28T18:11:40.296Z,15.00
2022-11-28T18:14:30.119Z,14.80
2022-11-28T18:17:21.613Z,14.60
2022-11-28T18:20:09.035Z,14.03
2022-11-28T18:22:56.903Z,13.50
2022-11-28T18:25:45.324Z,14.10
2022-11-28T18:28:34.567Z,15.30
2022-11-28T18:31:26.580Z,14.03
2022-11-28T18:34:13.523Z,13.70
2022-11-28T18:37:00.986Z,15.07
2022-11-28T18:39:48.063Z,14.70
2022-11-28T18:42:36.111Z,15.07
2022-11-28T18:45:23.923Z,14.27
2022-11-28T18:48:13.524Z,14.00
2022-11-28T18:51:00.961Z,14.80
2022-11-28T18:53:48.914Z,15.80
2022-11-28T18:56:36.350Z,15.23
2022-11-28T18:59:23.375Z,14.60
2022-11-28T19:02:13.657Z,14.60
2022-11-28T19:05:00.948Z,13.80
2022-11-28T19:07:48.399Z,17.20
2022-11-28T19:10:39.675Z,14.00
2022-11-28T19:13:29.283Z,15.73
2022-11-28T19:16:18.017Z,15.87
2022-11-28T19:19:06.405Z,16.00
2022-11-28T19:21:54.326Z,14.27
2022-11-28T19:24:41.284Z,14.77
2022-11-28T19:27:28.227Z,14.10
2022-11-28T19:30:16.596Z,13.87
2022-11-28T19:33:06.090Z,14.83
2022-11-28T19:35:53.494Z,14.80
2022-11-28T19:38:46.774Z,14.47
2022-11-28T19:41:34.099Z,13.67
2022-11-28T19:44:23.868Z,15.53
2022-11-28T19:47:10.961Z,14.47
2022-11-28T19:49:59.365Z,14.60
2022-11-28T19:52:47.104Z,15.27
2022-11-28T19:55:36.249Z,15.43
2022-11-28T19:58:23.739Z,15.20
2022-11-28T20:01:12.595Z,15.13
2022-11-28T20:03:59.668Z,15.60
2022-11-28T20:06:46.592Z,14.67
2022-11-28T20:09:33.622Z,15.03
2022-11-28T20:12:20.586Z,16.53
2022-11-28T20:15:10.590Z,15.40
2022-11-28T20:18:00.756Z,16.00
2022-11-28T20:20:48.491Z,15.90
2022-11-28T20:23:42.776Z,16.80
2022-11-28T20:26:31.018Z,16.13
2022-11-28T20:29:19.922Z,15.53
2022-11-28T20:32:07.039Z,17.87
2022-11-28T20:34:54.037Z,16.93
2022-11-28T20:37:41.099Z,16.20
2022-11-28T20:40:28.081Z,16.50
2022-11-28T20:43:15.005Z,17.47
2022-11-28T20:46:16.850Z,17.43
2022-11-28T20:49:07.000Z,16.80
2022-11-28T20:51:54.093Z,17.40
2022-11-28T20:54:40.999Z,19.07
2022-11-28T20:57:28.598Z,16.97
2022-11-28T21:00:20.271Z,18.57
2022-11-28T21:03:10.499Z,16.77
2022-11-28T21:06:01.011Z,17.53
2022-11-28T21:08:49.086Z,18.70
2022-11-28T21:11:56.359Z,18.53
2022-11-28T21:14:44.191Z,18.57
2022-11-28T21:17:32.712Z,18.90
2022-11-28T21:20:20.151Z,18.73
2022-11-28T21:23:09.301Z,18.03
2022-11-28T21:25:56.832Z,18.30
2022-11-28T21:28:45.470Z,18.93
2022-11-28T21:31:34.096Z,20.80
2022-11-28T21:34:22.312Z,18.57
2022-11-28T21:37:11.358Z,18.90
2022-11-28T21:39:59.510Z,19.07
2022-11-28T21:42:47.163Z,20.30
2022-11-28T21:45:35.289Z,19.23
2022-11-28T21:48:22.832Z,18.73
2022-11-28T21:51:15.905Z,19.93
2022-11-28T21:54:05.880Z,18.67
2022-11-28T21:56:53.288Z,19.27
2022-11-28T21:59:41.120Z,20.57
2022-11-28T22:02:31.264Z,20.30
2022-11-28T22:05:18.339Z,18.10
2022-11-28T22:08:05.301Z,20.77
2022-11-28T22:10:53.063Z,21.60
2022-11-28T22:13:42.242Z,20.40
2022-11-28T22:16:29.643Z,20.63
2022-11-28T22:19:16.803Z,20.43
2022-11-28T22:22:04.450Z,19.17
2022-11-28T22:24:56.422Z,19.47
2022-11-28T22:27:43.824Z,20.87
2022-11-28T22:30:30.819Z,19.97
2022-11-28T22:33:18.606Z,21.37
2022-11-28T22:36:11.735Z,19.67
2022-11-28T22:38:59.098Z,21.80
2022-11-28T22:41:47.409Z,21.73
2022-11-28T22:44:34.930Z,20.50
2022-11-28T22:47:23.382Z,19.57
2022-11-28T22:50:10.670Z,20.43
2022-11-28T22:52:58.213Z,20.03
2022-11-28T22:55:45.800Z,21.03
2022-11-28T22:58:42.678Z,21.97
2022-11-28T23:01:32.283Z,20.37
2022-11-28T23:04:19.337Z,20.93
2022-11-28T23:07:06.341Z,21.37
2022-11-28T23:09:53.312Z,21.67
2022-11-28T23:12:41.927Z,21.13
2022-11-28T23:15:28.888Z,20.13
2022-11-28T23:18:15.909Z,20.40
2022-11-28T23:21:03.078Z,20.30
2022-11-28T23:23:50.631Z,20.10
2022-11-28T23:26:37.641Z,22.13
2022-11-28T23:29:24.801Z,21.77
2022-11-28T23:32:11.871Z,20.90
2022-11-28T23:35:00.202Z,21.23
2022-11-28T23:37:47.221Z,20.40
2022-11-28T23:40:34.265Z,21.77
2022-11-28T23:43:21.352Z,21.50
2022-11-28T23:46:10.067Z,20.13
2022-11-28T23:48:57.149Z,21.47
2022-11-28T23:51:44.160Z,20.67
2022-11-28T23:54:31.563Z,21.47
2022-11-28T23:57:18.492Z,21.63
